sensor_id;sensor_type;location;lat;lon;timestamp;P1;durP1;ratioP1;P2;durP2;ratioP2
10088;SDS011;51898;49.864;8.550;2023-05-09T00:00:17;23.80;;;16.90;;
10088;SDS011;51898;49.864;8.550;2023-05-09T00:03:20;23.27;;;17.87;;
10088;SDS011;51898;49.864;8.550;2023-05-09T00:06:22;21.13;;;17.07;;
10088;SDS011;51898;49.864;8.550;2023-05-09T00:09:24;28.87;;;19.80;;
10088;SDS011;51898;49.864;8.550;2023-05-09T00:12:26;28.17;;;19.40;;
10088;SDS011;51898;49.864;8.550;2023-05-09T00:15:28;24.33;;;19.20;;
10088;SDS011;51898;49.864;8.550;2023-05-09T00:18:30;26.83;;;19.70;;
10088;SDS011;51898;49.864;8.550;2023-05-09T00:21:34;26.67;;;19.13;;
10088;SDS011;51898;49.864;8.550;2023-05-09T00:24:35;34.00;;;22.40;;
10088;SDS011;51898;49.864;8.550;2023-05-09T00:27:37;28.07;;;19.40;;
10088;SDS011;51898;49.864;8.550;2023-05-09T00:30:39;24.80;;;18.00;;
10088;SDS011;51898;49.864;8.550;2023-05-09T00:33:41;22.67;;;17.17;;
10088;SDS011;51898;49.864;8.550;2023-05-09T00:36:42;22.50;;;17.80;;
10088;SDS011;51898;49.864;8.550;2023-05-09T00:39:44;21.83;;;17.37;;
10088;SDS011;51898;49.864;8.550;2023-05-09T00:42:46;25.37;;;17.30;;
10088;SDS011;51898;49.864;8.550;2023-05-09T00:45:47;24.40;;;17.50;;
10088;SDS011;51898;49.864;8.550;2023-05-09T00:48:49;26.20;;;18.03;;
10088;SDS011;51898;49.864;8.550;2023-05-09T00:51:52;24.93;;;18.53;;
10088;SDS011;51898;49.864;8.550;2023-05-09T00:54:55;21.80;;;17.27;;
10088;SDS011;51898;49.864;8.550;2023-05-09T00:57:57;19.40;;;16.20;;
10088;SDS011;51898;49.864;8.550;2023-05-09T01:00:59;20.73;;;15.83;;
10088;SDS011;51898;49.864;8.550;2023-05-09T01:04:02;22.40;;;17.07;;
10088;SDS011;51898;49.864;8.550;2023-05-09T01:13:53;18.70;;;15.60;;
10088;SDS011;51898;49.864;8.550;2023-05-09T01:17:10;20.60;;;16.10;;
10088;SDS011;51898;49.864;8.550;2023-05-09T01:20:24;23.57;;;16.77;;
10088;SDS011;51898;49.864;8.550;2023-05-09T01:30:23;19.67;;;16.90;;
10088;SDS011;51898;49.864;8.550;2023-05-09T01:33:26;23.60;;;16.30;;
10088;SDS011;51898;49.864;8.550;2023-05-09T01:36:31;20.53;;;15.87;;
10088;SDS011;51898;49.864;8.550;2023-05-09T01:39:37;18.70;;;15.73;;
10088;SDS011;51898;49.864;8.550;2023-05-09T01:42:42;22.70;;;16.10;;
10088;SDS011;51898;49.864;8.550;2023-05-09T01:45:46;19.00;;;16.40;;
10088;SDS011;51898;49.864;8.550;2023-05-09T01:48:49;21.60;;;15.70;;
10088;SDS011;51898;49.864;8.550;2023-05-09T01:51:51;18.27;;;15.43;;
10088;SDS011;51898;49.864;8.550;2023-05-09T01:54:55;19.50;;;17.13;;
10088;SDS011;51898;49.864;8.550;2023-05-09T01:57:57;18.93;;;15.87;;
10088;SDS011;51898;49.864;8.550;2023-05-09T02:01:01;20.27;;;15.40;;
10088;SDS011;51898;49.864;8.550;2023-05-09T02:04:03;20.53;;;16.20;;
10088;SDS011;51898;49.864;8.550;2023-05-09T02:07:05;20.53;;;16.57;;
10088;SDS011;51898;49.864;8.550;2023-05-09T02:10:08;20.10;;;16.70;;
10088;SDS011;51898;49.864;8.550;2023-05-09T02:13:11;22.07;;;16.67;;
10088;SDS011;51898;49.864;8.550;2023-05-09T02:16:13;22.47;;;17.57;;
10088;SDS011;51898;49.864;8.550;2023-05-09T02:19:15;22.00;;;16.97;;
10088;SDS011;51898;49.864;8.550;2023-05-09T02:22:17;21.13;;;16.60;;
10088;SDS011;51898;49.864;8.550;2023-05-09T02:25:19;22.37;;;16.40;;
10088;SDS011;51898;49.864;8.550;2023-05-09T02:28:21;21.57;;;17.80;;
10088;SDS011;51898;49.864;8.550;2023-05-09T02:31:25;22.40;;;18.00;;
10088;SDS011;51898;49.864;8.550;2023-05-09T02:34:28;22.17;;;16.27;;
10088;SDS011;51898;49.864;8.550;2023-05-09T02:37:30;18.67;;;16.20;;
10088;SDS011;51898;49.864;8.550;2023-05-09T02:40:32;21.43;;;16.50;;
10088;SDS011;51898;49.864;8.550;2023-05-09T02:43:34;23.63;;;18.70;;
10088;SDS011;51898;49.864;8.550;2023-05-09T02:46:36;21.30;;;17.03;;
10088;SDS011;51898;49.864;8.550;2023-05-09T02:49:38;21.97;;;18.20;;
10088;SDS011;51898;49.864;8.550;2023-05-09T02:52:39;24.10;;;18.67;;
10088;SDS011;51898;49.864;8.550;2023-05-09T02:55:41;26.30;;;18.13;;
10088;SDS011;51898;49.864;8.550;2023-05-09T02:58:43;24.10;;;18.60;;
10088;SDS011;51898;49.864;8.550;2023-05-09T03:01:51;24.40;;;18.13;;
10088;SDS011;51898;49.864;8.550;2023-05-09T03:04:52;23.27;;;18.33;;
10088;SDS011;51898;49.864;8.550;2023-05-09T03:07:54;23.77;;;18.83;;
10088;SDS011;51898;49.864;8.550;2023-05-09T03:10:55;26.90;;;19.40;;
10088;SDS011;51898;49.864;8.550;2023-05-09T03:13:57;27.67;;;20.50;;
10088;SDS011;51898;49.864;8.550;2023-05-09T03:16:59;22.63;;;17.30;;
10088;SDS011;51898;49.864;8.550;2023-05-09T03:20:00;26.10;;;19.60;;
10088;SDS011;51898;49.864;8.550;2023-05-09T03:23:05;30.43;;;20.30;;
10088;SDS011;51898;49.864;8.550;2023-05-09T03:26:07;27.27;;;20.53;;
10088;SDS011;51898;49.864;8.550;2023-05-09T03:29:08;20.70;;;17.30;;
10088;SDS011;51898;49.864;8.550;2023-05-09T03:32:10;26.73;;;17.97;;
10088;SDS011;51898;49.864;8.550;2023-05-09T03:35:15;27.80;;;19.60;;
10088;SDS011;51898;49.864;8.550;2023-05-09T03:38:17;29.77;;;21.23;;
10088;SDS011;51898;49.864;8.550;2023-05-09T03:41:19;27.27;;;20.40;;
10088;SDS011;51898;49.864;8.550;2023-05-09T03:44:21;27.60;;;21.17;;
10088;SDS011;51898;49.864;8.550;2023-05-09T03:47:22;23.83;;;19.80;;
10088;SDS011;51898;49.864;8.550;2023-05-09T03:50:24;25.40;;;20.23;;
10088;SDS011;51898;49.864;8.550;2023-05-09T03:53:26;26.93;;;20.03;;
10088;SDS011;51898;49.864;8.550;2023-05-09T03:56:27;27.83;;;20.40;;
10088;SDS011;51898;49.864;8.550;2023-05-09T03:59:29;26.10;;;18.57;;
10088;SDS011;51898;49.864;8.550;2023-05-09T04:02:33;23.70;;;18.80;;
10088;SDS011;51898;49.864;8.550;2023-05-09T04:05:36;22.43;;;17.97;;
10088;SDS011;51898;49.864;8.550;2023-05-09T04:08:38;22.60;;;17.93;;
10088;SDS011;51898;49.864;8.550;2023-05-09T04:11:39;26.53;;;18.30;;
10088;SDS011;51898;49.864;8.550;2023-05-09T04:14:41;24.40;;;19.70;;
10088;SDS011;51898;49.864;8.550;2023-05-09T04:17:46;26.70;;;19.43;;
10088;SDS011;51898;49.864;8.550;2023-05-09T04:20:48;27.40;;;19.60;;
10088;SDS011;51898;49.864;8.550;2023-05-09T04:23:50;26.30;;;19.17;;
10088;SDS011;51898;49.864;8.550;2023-05-09T04:26:51;27.30;;;19.93;;
10088;SDS011;51898;49.864;8.550;2023-05-09T04:29:53;29.47;;;19.87;;
10088;SDS011;51898;49.864;8.550;2023-05-09T04:32:55;23.67;;;18.63;;
10088;SDS011;51898;49.864;8.550;2023-05-09T04:35:56;33.53;;;19.80;;
10088;SDS011;51898;49.864;8.550;2023-05-09T04:38:58;28.97;;;20.20;;
10088;SDS011;51898;49.864;8.550;2023-05-09T04:42:00;23.80;;;18.60;;
10088;SDS011;51898;49.864;8.550;2023-05-09T04:45:02;23.73;;;17.83;;
10088;SDS011;51898;49.864;8.550;2023-05-09T04:48:05;27.90;;;19.10;;
10088;SDS011;51898;49.864;8.550;2023-05-09T04:51:07;26.37;;;19.70;;
10088;SDS011;51898;49.864;8.550;2023-05-09T04:54:09;23.43;;;19.40;;
10088;SDS011;51898;49.864;8.550;2023-05-09T04:57:11;23.30;;;18.43;;
10088;SDS011;51898;49.864;8.550;2023-05-09T05:00:19;20.43;;;16.07;;
10088;SDS011;51898;49.864;8.550;2023-05-09T05:03:21;21.50;;;16.13;;
10088;SDS011;51898;49.864;8.550;2023-05-09T05:06:23;20.80;;;16.80;;
10088;SDS011;51898;49.864;8.550;2023-05-09T05:09:24;19.77;;;15.90;;
10088;SDS011;51898;49.864;8.550;2023-05-09T05:12:26;17.87;;;15.43;;
10088;SDS011;51898;49.864;8.550;2023-05-09T05:15:27;18.20;;;15.80;;
10088;SDS011;51898;49.864;8.550;2023-05-09T05:18:29;19.10;;;15.13;;
10088;SDS011;51898;49.864;8.550;2023-05-09T05:21:31;19.23;;;15.97;;
10088;SDS011;51898;49.864;8.550;2023-05-09T05:24:32;21.73;;;16.37;;
10088;SDS011;51898;49.864;8.550;2023-05-09T05:27:34;18.27;;;16.30;;
10088;SDS011;51898;49.864;8.550;2023-05-09T05:30:36;19.00;;;17.00;;
10088;SDS011;51898;49.864;8.550;2023-05-09T05:33:37;19.90;;;17.20;;
10088;SDS011;51898;49.864;8.550;2023-05-09T05:36:39;19.30;;;16.43;;
10088;SDS011;51898;49.864;8.550;2023-05-09T05:39:40;19.10;;;16.40;;
10088;SDS011;51898;49.864;8.550;2023-05-09T05:42:42;19.17;;;15.33;;
10088;SDS011;51898;49.864;8.550;2023-05-09T05:45:44;19.73;;;15.87;;
10088;SDS011;51898;49.864;8.550;2023-05-09T05:48:46;18.83;;;16.17;;
10088;SDS011;51898;49.864;8.550;2023-05-09T05:51:47;19.90;;;16.20;;
10088;SDS011;51898;49.864;8.550;2023-05-09T05:54:49;21.03;;;16.23;;
10088;SDS011;51898;49.864;8.550;2023-05-09T05:57:50;20.97;;;16.20;;
10088;SDS011;51898;49.864;8.550;2023-05-09T06:00:52;18.20;;;16.10;;
10088;SDS011;51898;49.864;8.550;2023-05-09T06:03:53;17.83;;;15.50;;
10088;SDS011;51898;49.864;8.550;2023-05-09T06:06:56;18.63;;;16.70;;
10088;SDS011;51898;49.864;8.550;2023-05-09T06:09:58;19.90;;;17.80;;
10088;SDS011;51898;49.864;8.550;2023-05-09T06:12:59;21.10;;;17.27;;
10088;SDS011;51898;49.864;8.550;2023-05-09T06:16:01;19.40;;;16.53;;
10088;SDS011;51898;49.864;8.550;2023-05-09T06:19:18;22.10;;;17.63;;
10088;SDS011;51898;49.864;8.550;2023-05-09T06:22:20;22.57;;;18.60;;
10088;SDS011;51898;49.864;8.550;2023-05-09T06:25:21;22.03;;;17.30;;
10088;SDS011;51898;49.864;8.550;2023-05-09T06:28:23;25.53;;;18.40;;
10088;SDS011;51898;49.864;8.550;2023-05-09T06:31:24;21.93;;;18.40;;
10088;SDS011;51898;49.864;8.550;2023-05-09T06:34:26;21.60;;;18.50;;
10088;SDS011;51898;49.864;8.550;2023-05-09T06:37:31;19.53;;;16.80;;
10088;SDS011;51898;49.864;8.550;2023-05-09T06:40:33;23.03;;;18.80;;
10088;SDS011;51898;49.864;8.550;2023-05-09T06:43:35;20.27;;;18.00;;
10088;SDS011;51898;49.864;8.550;2023-05-09T06:46:37;22.90;;;18.43;;
10088;SDS011;51898;49.864;8.550;2023-05-09T06:49:39;21.17;;;18.60;;
10088;SDS011;51898;49.864;8.550;2023-05-09T06:52:40;21.80;;;18.83;;
10088;SDS011;51898;49.864;8.550;2023-05-09T06:55:42;25.57;;;20.07;;
10088;SDS011;51898;49.864;8.550;2023-05-09T06:58:44;23.23;;;18.97;;
10088;SDS011;51898;49.864;8.550;2023-05-09T07:01:46;24.90;;;19.57;;
10088;SDS011;51898;49.864;8.550;2023-05-09T07:04:47;26.60;;;19.50;;
10088;SDS011;51898;49.864;8.550;2023-05-09T07:07:49;22.80;;;19.47;;
10088;SDS011;51898;49.864;8.550;2023-05-09T07:10:51;22.40;;;19.50;;
10088;SDS011;51898;49.864;8.550;2023-05-09T07:13:52;23.90;;;20.23;;
10088;SDS011;51898;49.864;8.550;2023-05-09T07:16:54;26.07;;;21.53;;
10088;SDS011;51898;49.864;8.550;2023-05-09T07:20:14;26.57;;;21.17;;
10088;SDS011;51898;49.864;8.550;2023-05-09T07:23:16;23.70;;;20.30;;
10088;SDS011;51898;49.864;8.550;2023-05-09T07:26:18;25.10;;;20.60;;
10088;SDS011;51898;49.864;8.550;2023-05-09T07:29:19;26.60;;;19.73;;
10088;SDS011;51898;49.864;8.550;2023-05-09T07:32:21;25.70;;;20.90;;
10088;SDS011;51898;49.864;8.550;2023-05-09T07:35:23;24.63;;;19.80;;
10088;SDS011;51898;49.864;8.550;2023-05-09T07:38:24;26.07;;;20.97;;
10088;SDS011;51898;49.864;8.550;2023-05-09T07:41:26;24.30;;;19.87;;
10088;SDS011;51898;49.864;8.550;2023-05-09T07:44:28;25.03;;;19.93;;
10088;SDS011;51898;49.864;8.550;2023-05-09T07:47:29;26.10;;;20.43;;
10088;SDS011;51898;49.864;8.550;2023-05-09T07:50:34;25.00;;;19.70;;
10088;SDS011;51898;49.864;8.550;2023-05-09T07:53:36;23.87;;;19.80;;
10088;SDS011;51898;49.864;8.550;2023-05-09T07:56:37;28.00;;;19.17;;
10088;SDS011;51898;49.864;8.550;2023-05-09T07:59:39;29.57;;;21.40;;
10088;SDS011;51898;49.864;8.550;2023-05-09T08:02:41;27.17;;;21.90;;
10088;SDS011;51898;49.864;8.550;2023-05-09T08:05:42;25.33;;;20.77;;
10088;SDS011;51898;49.864;8.550;2023-05-09T08:08:44;26.80;;;21.20;;
10088;SDS011;51898;49.864;8.550;2023-05-09T08:11:46;28.17;;;21.20;;
10088;SDS011;51898;49.864;8.550;2023-05-09T08:14:47;27.33;;;21.10;;
10088;SDS011;51898;49.864;8.550;2023-05-09T08:17:49;30.87;;;20.67;;
10088;SDS011;51898;49.864;8.550;2023-05-09T08:20:51;29.83;;;21.93;;
10088;SDS011;51898;49.864;8.550;2023-05-09T08:23:53;30.83;;;21.23;;
10088;SDS011;51898;49.864;8.550;2023-05-09T08:26:55;32.70;;;22.17;;
10088;SDS011;51898;49.864;8.550;2023-05-09T08:29:57;27.23;;;20.00;;
10088;SDS011;51898;49.864;8.550;2023-05-09T08:32:59;26.20;;;20.93;;
10088;SDS011;51898;49.864;8.550;2023-05-09T08:36:01;28.50;;;22.07;;
10088;SDS011;51898;49.864;8.550;2023-05-09T08:39:03;28.20;;;21.00;;
10088;SDS011;51898;49.864;8.550;2023-05-09T08:42:04;27.80;;;20.77;;
10088;SDS011;51898;49.864;8.550;2023-05-09T08:45:10;27.93;;;21.43;;
10088;SDS011;51898;49.864;8.550;2023-05-09T08:48:15;26.87;;;20.90;;
10088;SDS011;51898;49.864;8.550;2023-05-09T08:51:17;27.40;;;20.00;;
10088;SDS011;51898;49.864;8.550;2023-05-09T08:54:23;25.30;;;20.10;;
10088;SDS011;51898;49.864;8.550;2023-05-09T08:57:28;26.40;;;20.03;;
10088;SDS011;51898;49.864;8.550;2023-05-09T09:00:32;25.27;;;22.53;;
10088;SDS011;51898;49.864;8.550;2023-05-09T09:03:34;25.63;;;20.83;;
10088;SDS011;51898;49.864;8.550;2023-05-09T09:06:39;28.20;;;22.07;;
10088;SDS011;51898;49.864;8.550;2023-05-09T09:09:45;29.83;;;21.53;;
10088;SDS011;51898;49.864;8.550;2023-05-09T09:12:48;32.03;;;22.20;;
10088;SDS011;51898;49.864;8.550;2023-05-09T09:15:53;27.50;;;20.40;;
10088;SDS011;51898;49.864;8.550;2023-05-09T09:18:58;29.80;;;22.27;;
10088;SDS011;51898;49.864;8.550;2023-05-09T09:22:01;30.80;;;22.43;;
10088;SDS011;51898;49.864;8.550;2023-05-09T09:25:05;25.80;;;22.10;;
10088;SDS011;51898;49.864;8.550;2023-05-09T09:28:06;29.10;;;22.73;;
10088;SDS011;51898;49.864;8.550;2023-05-09T09:31:18;28.10;;;22.17;;
10088;SDS011;51898;49.864;8.550;2023-05-09T09:34:22;24.87;;;21.93;;
10088;SDS011;51898;49.864;8.550;2023-05-09T09:37:23;29.53;;;22.60;;
10088;SDS011;51898;49.864;8.550;2023-05-09T09:40:25;25.43;;;21.60;;
10088;SDS011;51898;49.864;8.550;2023-05-09T09:43:27;31.53;;;22.43;;
10088;SDS011;51898;49.864;8.550;2023-05-09T09:46:34;25.57;;;22.03;;
10088;SDS011;51898;49.864;8.550;2023-05-09T09:49:51;28.73;;;22.80;;
10088;SDS011;51898;49.864;8.550;2023-05-09T09:52:53;26.83;;;21.30;;
10088;SDS011;51898;49.864;8.550;2023-05-09T09:55:56;25.33;;;20.00;;
10088;SDS011;51898;49.864;8.550;2023-05-09T10:02:29;23.00;;;20.43;;
10088;SDS011;51898;49.864;8.550;2023-05-09T10:05:31;23.10;;;19.97;;
10088;SDS011;51898;49.864;8.550;2023-05-09T10:08:34;19.77;;;17.77;;
10088;SDS011;51898;49.864;8.550;2023-05-09T10:11:36;18.93;;;16.70;;
10088;SDS011;51898;49.864;8.550;2023-05-09T10:14:37;25.30;;;17.67;;
10088;SDS011;51898;49.864;8.550;2023-05-09T10:17:42;18.83;;;16.87;;
10088;SDS011;51898;49.864;8.550;2023-05-09T10:20:44;18.93;;;16.27;;
10088;SDS011;51898;49.864;8.550;2023-05-09T10:23:46;18.23;;;16.37;;
10088;SDS011;51898;49.864;8.550;2023-05-09T10:26:52;22.57;;;18.27;;
10088;SDS011;51898;49.864;8.550;2023-05-09T10:30:01;20.33;;;18.13;;
10088;SDS011;51898;49.864;8.550;2023-05-09T10:33:08;25.00;;;19.33;;
10088;SDS011;51898;49.864;8.550;2023-05-09T10:36:12;21.97;;;18.77;;
10088;SDS011;51898;49.864;8.550;2023-05-09T10:39:17;23.23;;;17.47;;
10088;SDS011;51898;49.864;8.550;2023-05-09T10:42:19;18.70;;;16.70;;
10088;SDS011;51898;49.864;8.550;2023-05-09T10:45:23;18.60;;;15.90;;
10088;SDS011;51898;49.864;8.550;2023-05-09T10:48:25;18.70;;;16.70;;
10088;SDS011;51898;49.864;8.550;2023-05-09T10:51:26;18.33;;;16.50;;
10088;SDS011;51898;49.864;8.550;2023-05-09T10:54:29;18.70;;;16.13;;
10088;SDS011;51898;49.864;8.550;2023-05-09T10:57:33;18.77;;;16.77;;
10088;SDS011;51898;49.864;8.550;2023-05-09T11:00:40;18.20;;;16.30;;
10088;SDS011;51898;49.864;8.550;2023-05-09T11:03:55;18.83;;;15.40;;
10088;SDS011;51898;49.864;8.550;2023-05-09T11:06:59;16.43;;;14.73;;
10088;SDS011;51898;49.864;8.550;2023-05-09T11:10:07;17.13;;;15.27;;
10088;SDS011;51898;49.864;8.550;2023-05-09T11:13:20;17.60;;;15.80;;
10088;SDS011;51898;49.864;8.550;2023-05-09T11:16:26;18.50;;;16.50;;
10088;SDS011;51898;49.864;8.550;2023-05-09T11:22:56;23.37;;;16.60;;
10088;SDS011;51898;49.864;8.550;2023-05-09T11:26:05;18.50;;;16.60;;
10088;SDS011;51898;49.864;8.550;2023-05-09T11:29:08;19.13;;;15.73;;
10088;SDS011;51898;49.864;8.550;2023-05-09T11:32:12;16.93;;;14.70;;
10088;SDS011;51898;49.864;8.550;2023-05-09T11:35:15;18.10;;;16.10;;
10088;SDS011;51898;49.864;8.550;2023-05-09T11:38:21;16.27;;;14.57;;
10088;SDS011;51898;49.864;8.550;2023-05-09T11:41:23;17.93;;;14.80;;
10088;SDS011;51898;49.864;8.550;2023-05-09T11:44:25;15.23;;;13.00;;
10088;SDS011;51898;49.864;8.550;2023-05-09T11:47:28;14.83;;;13.43;;
10088;SDS011;51898;49.864;8.550;2023-05-09T11:50:30;14.30;;;12.83;;
10088;SDS011;51898;49.864;8.550;2023-05-09T11:53:32;14.37;;;12.90;;
10088;SDS011;51898;49.864;8.550;2023-05-09T11:56:34;15.67;;;13.27;;
10088;SDS011;51898;49.864;8.550;2023-05-09T11:59:38;14.70;;;13.13;;
10088;SDS011;51898;49.864;8.550;2023-05-09T12:02:39;14.13;;;12.53;;
10088;SDS011;51898;49.864;8.550;2023-05-09T12:05:46;14.23;;;12.83;;
10088;SDS011;51898;49.864;8.550;2023-05-09T12:08:48;12.50;;;11.20;;
10088;SDS011;51898;49.864;8.550;2023-05-09T12:11:50;12.83;;;11.53;;
10088;SDS011;51898;49.864;8.550;2023-05-09T12:14:52;11.23;;;10.23;;
10088;SDS011;51898;49.864;8.550;2023-05-09T12:18:04;11.60;;;10.50;;
10088;SDS011;51898;49.864;8.550;2023-05-09T12:21:08;15.40;;;10.87;;
10088;SDS011;51898;49.864;8.550;2023-05-09T12:24:09;12.37;;;11.17;;
10088;SDS011;51898;49.864;8.550;2023-05-09T12:27:11;12.30;;;11.00;;
10088;SDS011;51898;49.864;8.550;2023-05-09T12:30:13;13.53;;;11.00;;
10088;SDS011;51898;49.864;8.550;2023-05-09T12:33:16;12.00;;;10.60;;
10088;SDS011;51898;49.864;8.550;2023-05-09T12:36:18;11.90;;;10.70;;
10088;SDS011;51898;49.864;8.550;2023-05-09T12:39:20;15.07;;;10.67;;
10088;SDS011;51898;49.864;8.550;2023-05-09T12:42:23;11.67;;;10.57;;
10088;SDS011;51898;49.864;8.550;2023-05-09T12:45:30;10.80;;;9.80;;
10088;SDS011;51898;49.864;8.550;2023-05-09T12:48:34;10.00;;;9.10;;
10088;SDS011;51898;49.864;8.550;2023-05-09T12:51:46;11.50;;;10.30;;
10088;SDS011;51898;49.864;8.550;2023-05-09T12:54:51;15.50;;;10.43;;
10088;SDS011;51898;49.864;8.550;2023-05-09T12:58:00;10.47;;;9.00;;
10088;SDS011;51898;49.864;8.550;2023-05-09T13:01:03;10.87;;;9.80;;
10088;SDS011;51898;49.864;8.550;2023-05-09T13:04:05;8.77;;;8.07;;
10088;SDS011;51898;49.864;8.550;2023-05-09T13:07:08;8.83;;;7.33;;
10088;SDS011;51898;49.864;8.550;2023-05-09T13:10:14;8.87;;;7.97;;
10088;SDS011;51898;49.864;8.550;2023-05-09T13:13:23;6.50;;;5.97;;
10088;SDS011;51898;49.864;8.550;2023-05-09T13:16:26;7.30;;;6.60;;
10088;SDS011;51898;49.864;8.550;2023-05-09T13:19:28;7.90;;;7.10;;
10088;SDS011;51898;49.864;8.550;2023-05-09T13:22:30;7.13;;;6.53;;
10088;SDS011;51898;49.864;8.550;2023-05-09T13:25:32;6.87;;;6.20;;
10088;SDS011;51898;49.864;8.550;2023-05-09T13:28:34;7.67;;;6.83;;
10088;SDS011;51898;49.864;8.550;2023-05-09T13:31:35;9.63;;;7.33;;
10088;SDS011;51898;49.864;8.550;2023-05-09T13:34:37;8.00;;;7.40;;
10088;SDS011;51898;49.864;8.550;2023-05-09T13:37:39;7.30;;;6.70;;
10088;SDS011;51898;49.864;8.550;2023-05-09T13:40:40;7.70;;;7.00;;
10088;SDS011;51898;49.864;8.550;2023-05-09T13:43:42;8.63;;;7.23;;
10088;SDS011;51898;49.864;8.550;2023-05-09T13:46:44;8.37;;;7.07;;
10088;SDS011;51898;49.864;8.550;2023-05-09T13:49:46;8.57;;;7.77;;
10088;SDS011;51898;49.864;8.550;2023-05-09T13:52:47;10.57;;;8.93;;
10088;SDS011;51898;49.864;8.550;2023-05-09T13:55:50;8.00;;;7.37;;
10088;SDS011;51898;49.864;8.550;2023-05-09T13:58:52;9.20;;;8.30;;
10088;SDS011;51898;49.864;8.550;2023-05-09T14:01:54;8.43;;;7.60;;
10088;SDS011;51898;49.864;8.550;2023-05-09T14:04:57;8.20;;;7.60;;
10088;SDS011;51898;49.864;8.550;2023-05-09T14:07:59;8.70;;;7.73;;
10088;SDS011;51898;49.864;8.550;2023-05-09T14:11:01;7.57;;;6.97;;
10088;SDS011;51898;49.864;8.550;2023-05-09T14:14:03;6.67;;;6.07;;
10088;SDS011;51898;49.864;8.550;2023-05-09T14:17:05;7.03;;;6.13;;
10088;SDS011;51898;49.864;8.550;2023-05-09T14:20:06;7.50;;;6.90;;
10088;SDS011;51898;49.864;8.550;2023-05-09T14:23:08;8.37;;;7.57;;
10088;SDS011;51898;49.864;8.550;2023-05-09T14:26:10;8.80;;;8.07;;
10088;SDS011;51898;49.864;8.550;2023-05-09T14:29:12;12.10;;;8.63;;
10088;SDS011;51898;49.864;8.550;2023-05-09T14:32:13;9.60;;;8.70;;
10088;SDS011;51898;49.864;8.550;2023-05-09T14:35:15;8.87;;;8.17;;
10088;SDS011;51898;49.864;8.550;2023-05-09T14:38:17;10.67;;;9.67;;
10088;SDS011;51898;49.864;8.550;2023-05-09T14:41:18;12.80;;;11.10;;
10088;SDS011;51898;49.864;8.550;2023-05-09T14:44:21;11.20;;;10.10;;
10088;SDS011;51898;49.864;8.550;2023-05-09T14:47:25;11.40;;;10.20;;
10088;SDS011;51898;49.864;8.550;2023-05-09T14:50:26;12.50;;;11.30;;
10088;SDS011;51898;49.864;8.550;2023-05-09T14:53:28;13.23;;;11.80;;
10088;SDS011;51898;49.864;8.550;2023-05-09T14:56:30;12.30;;;11.13;;
10088;SDS011;51898;49.864;8.550;2023-05-09T14:59:32;12.63;;;11.03;;
10088;SDS011;51898;49.864;8.550;2023-05-09T15:02:38;14.27;;;12.77;;
10088;SDS011;51898;49.864;8.550;2023-05-09T15:05:40;12.40;;;11.10;;
10088;SDS011;51898;49.864;8.550;2023-05-09T15:08:42;12.53;;;11.23;;
10088;SDS011;51898;49.864;8.550;2023-05-09T15:11:43;12.80;;;11.60;;
10088;SDS011;51898;49.864;8.550;2023-05-09T15:14:49;12.37;;;11.23;;
10088;SDS011;51898;49.864;8.550;2023-05-09T15:17:53;13.10;;;11.80;;
10088;SDS011;51898;49.864;8.550;2023-05-09T15:20:55;14.67;;;12.97;;
10088;SDS011;51898;49.864;8.550;2023-05-09T15:23:57;15.83;;;12.57;;
10088;SDS011;51898;49.864;8.550;2023-05-09T15:26:59;14.67;;;13.27;;
10088;SDS011;51898;49.864;8.550;2023-05-09T15:30:01;12.57;;;11.40;;
10088;SDS011;51898;49.864;8.550;2023-05-09T15:33:03;14.03;;;12.53;;
10088;SDS011;51898;49.864;8.550;2023-05-09T15:36:04;13.10;;;11.63;;
10088;SDS011;51898;49.864;8.550;2023-05-09T15:39:07;13.67;;;12.27;;
10088;SDS011;51898;49.864;8.550;2023-05-09T15:42:08;13.40;;;12.10;;
10088;SDS011;51898;49.864;8.550;2023-05-09T15:45:12;14.43;;;12.93;;
10088;SDS011;51898;49.864;8.550;2023-05-09T15:48:14;16.13;;;14.43;;
10088;SDS011;51898;49.864;8.550;2023-05-09T15:51:16;16.53;;;14.13;;
10088;SDS011;51898;49.864;8.550;2023-05-09T15:54:17;17.63;;;13.57;;
10088;SDS011;51898;49.864;8.550;2023-05-09T15:57:19;15.10;;;13.57;;
10088;SDS011;51898;49.864;8.550;2023-05-09T16:00:21;15.67;;;14.00;;
10088;SDS011;51898;49.864;8.550;2023-05-09T16:03:24;14.63;;;13.23;;
10088;SDS011;51898;49.864;8.550;2023-05-09T16:06:25;16.03;;;14.13;;
10088;SDS011;51898;49.864;8.550;2023-05-09T16:09:28;15.03;;;13.13;;
10088;SDS011;51898;49.864;8.550;2023-05-09T16:12:30;14.23;;;12.77;;
10088;SDS011;51898;49.864;8.550;2023-05-09T16:15:33;15.67;;;14.00;;
10088;SDS011;51898;49.864;8.550;2023-05-09T16:18:35;15.40;;;13.67;;
10088;SDS011;51898;49.864;8.550;2023-05-09T16:21:36;14.77;;;13.03;;
10088;SDS011;51898;49.864;8.550;2023-05-09T16:24:39;13.97;;;12.00;;
10088;SDS011;51898;49.864;8.550;2023-05-09T16:27:40;14.50;;;13.03;;
10088;SDS011;51898;49.864;8.550;2023-05-09T16:30:42;15.43;;;13.83;;
10088;SDS011;51898;49.864;8.550;2023-05-09T16:33:44;17.47;;;13.57;;
10088;SDS011;51898;49.864;8.550;2023-05-09T16:36:47;16.93;;;14.53;;
10088;SDS011;51898;49.864;8.550;2023-05-09T16:39:48;17.17;;;15.30;;
10088;SDS011;51898;49.864;8.550;2023-05-09T16:42:50;17.73;;;14.50;;
10088;SDS011;51898;49.864;8.550;2023-05-09T16:45:53;16.03;;;14.30;;
10088;SDS011;51898;49.864;8.550;2023-05-09T16:48:54;17.90;;;16.00;;
10088;SDS011;51898;49.864;8.550;2023-05-09T16:51:56;18.30;;;16.33;;
10088;SDS011;51898;49.864;8.550;2023-05-09T16:54:58;18.77;;;16.47;;
10088;SDS011;51898;49.864;8.550;2023-05-09T16:57:59;20.80;;;16.27;;
10088;SDS011;51898;49.864;8.550;2023-05-09T17:01:01;21.70;;;16.20;;
10088;SDS011;51898;49.864;8.550;2023-05-09T17:04:03;20.83;;;15.93;;
10088;SDS011;51898;49.864;8.550;2023-05-09T17:07:06;15.33;;;13.40;;
10088;SDS011;51898;49.864;8.550;2023-05-09T17:10:09;17.03;;;15.20;;
10088;SDS011;51898;49.864;8.550;2023-05-09T17:13:11;18.30;;;14.97;;
10088;SDS011;51898;49.864;8.550;2023-05-09T17:16:12;16.03;;;14.33;;
10088;SDS011;51898;49.864;8.550;2023-05-09T17:19:14;20.47;;;14.40;;
10088;SDS011;51898;49.864;8.550;2023-05-09T17:22:16;15.37;;;13.77;;
10088;SDS011;51898;49.864;8.550;2023-05-09T17:25:19;17.20;;;15.33;;
10088;SDS011;51898;49.864;8.550;2023-05-09T17:28:20;17.60;;;14.33;;
10088;SDS011;51898;49.864;8.550;2023-05-09T17:31:22;15.30;;;13.70;;
10088;SDS011;51898;49.864;8.550;2023-05-09T17:34:24;16.60;;;14.90;;
10088;SDS011;51898;49.864;8.550;2023-05-09T17:37:26;20.67;;;17.20;;
10088;SDS011;51898;49.864;8.550;2023-05-09T17:40:28;22.50;;;17.77;;
10088;SDS011;51898;49.864;8.550;2023-05-09T17:43:29;25.60;;;20.17;;
10088;SDS011;51898;49.864;8.550;2023-05-09T17:46:32;24.77;;;19.87;;
10088;SDS011;51898;49.864;8.550;2023-05-09T17:49:33;29.40;;;20.70;;
10088;SDS011;51898;49.864;8.550;2023-05-09T17:52:36;26.40;;;19.50;;
10088;SDS011;51898;49.864;8.550;2023-05-09T17:55:38;29.73;;;22.80;;
10088;SDS011;51898;49.864;8.550;2023-05-09T17:58:41;12.53;;;11.23;;
10088;SDS011;51898;49.864;8.550;2023-05-09T18:01:42;12.50;;;9.17;;
10088;SDS011;51898;49.864;8.550;2023-05-09T18:04:44;20.27;;;14.83;;
10088;SDS011;51898;49.864;8.550;2023-05-09T18:07:46;19.37;;;17.23;;
10088;SDS011;51898;49.864;8.550;2023-05-09T18:10:48;19.73;;;16.00;;